createdAt,value
2023-04-13T00:01:46.006Z,98837.39
2023-04-13T00:04:14.524Z,98842.41
2023-04-13T00:06:42.846Z,98848.55
2023-04-13T00:09:11.201Z,98851.15
2023-04-13T00:11:40.210Z,98847.75
2023-04-13T00:14:08.500Z,98850.60
2023-04-13T00:16:38.175Z,98845.20
2023-04-13T00:19:06.786Z,98849.34
2023-04-13T00:21:35.066Z,98856.11
2023-04-13T00:24:08.459Z,98849.80
2023-04-13T00:26:38.762Z,98854.59
2023-04-13T00:29:07.578Z,98858.91
2023-04-13T00:31:35.712Z,98849.17
2023-04-13T00:34:04.574Z,98844.75
2023-04-13T00:36:33.173Z,98846.48
2023-04-13T00:39:01.118Z,98842.71
2023-04-13T00:41:32.944Z,98844.11
2023-04-13T00:44:00.995Z,98842.01
2023-04-13T00:46:29.730Z,98843.11
2023-04-13T00:49:03.117Z,98840.04
2023-04-13T00:51:33.142Z,98832.31
2023-04-13T00:54:01.061Z,98828.08
2023-04-13T00:56:31.690Z,98827.34
2023-04-13T00:58:59.687Z,98842.42
2023-04-13T01:01:30.364Z,98844.27
2023-04-13T01:03:59.517Z,98837.66
2023-04-13T01:06:31.978Z,98833.98
2023-04-13T01:09:08.707Z,98837.55
2023-04-13T01:11:39.702Z,98834.46
2023-04-13T01:14:13.212Z,98829.53
2023-04-13T01:16:50.399Z,98833.55
2023-04-13T01:19:30.983Z,98835.93
2023-04-13T01:21:59.749Z,98828.31
2023-04-13T01:24:31.101Z,98829.04
2023-04-13T01:27:20.682Z,98828.24
2023-04-13T01:29:49.489Z,98825.38
2023-04-13T01:32:17.885Z,98821.23
2023-04-13T01:34:46.525Z,98817.98
2023-04-13T01:37:14.779Z,98815.96
2023-04-13T01:39:43.255Z,98823.20
2023-04-13T01:42:24.216Z,98823.11
2023-04-13T01:44:54.475Z,98826.38
2023-04-13T01:47:22.825Z,98831.70
2023-04-13T01:50:09.397Z,98835.03
2023-04-13T01:52:49.395Z,98829.85
2023-04-13T01:55:18.222Z,98821.14
2023-04-13T01:57:54.934Z,98815.95
2023-04-13T02:00:31.843Z,98809.59
2023-04-13T02:03:00.684Z,98817.02
2023-04-13T02:05:29.544Z,98831.98
2023-04-13T02:07:57.935Z,98848.91
2023-04-13T02:10:26.680Z,98854.55
2023-04-13T02:12:55.525Z,98852.81
2023-04-13T02:15:24.187Z,98847.06
2023-04-13T02:17:53.225Z,98845.56
2023-04-13T02:20:21.763Z,98841.91
2023-04-13T02:22:55.149Z,98843.01
2023-04-13T02:25:28.186Z,98839.03
2023-04-13T02:27:57.225Z,98836.72
2023-04-13T02:30:26.048Z,98835.56
2023-04-13T02:33:00.549Z,98840.14
2023-04-13T02:35:29.002Z,98841.05
2023-04-13T02:37:58.216Z,98836.19
2023-04-13T02:40:28.222Z,98834.80
2023-04-13T02:43:00.017Z,98837.06
2023-04-13T02:45:29.505Z,98837.46
2023-04-13T02:48:06.334Z,98839.33
2023-04-13T02:50:35.859Z,98838.16
2023-04-13T02:53:08.955Z,98833.77
2023-04-13T02:55:43.358Z,98832.71
2023-04-13T02:58:13.589Z,98829.30
2023-04-13T03:00:42.542Z,98830.47
2023-04-13T03:03:20.465Z,98832.01
2023-04-13T03:05:51.470Z,98832.21
2023-04-13T03:08:23.852Z,98839.17
2023-04-13T03:11:00.878Z,98837.66
2023-04-13T03:13:30.807Z,98845.52
2023-04-13T03:16:00.537Z,98841.94
2023-04-13T03:18:29.204Z,98839.86
2023-04-13T03:20:57.143Z,98843.16
2023-04-13T03:23:28.170Z,98845.81
2023-04-13T03:25:58.655Z,98850.07
2023-04-13T03:28:27.294Z,98850.41
2023-04-13T03:30:55.628Z,98851.77
2023-04-13T03:33:24.990Z,98854.33
2023-04-13T03:35:53.090Z,98858.49
2023-04-13T03:38:28.007Z,98861.92
2023-04-13T03:40:56.295Z,98861.48
2023-04-13T03:43:24.989Z,98865.27
2023-04-13T03:46:01.810Z,98856.73
2023-04-13T03:48:30.140Z,98854.23
2023-04-13T03:50:58.614Z,98856.91
2023-04-13T03:53:31.279Z,98858.18
2023-04-13T03:55:59.817Z,98860.81
2023-04-13T03:58:28.947Z,98861.38
2023-04-13T04:00:57.849Z,98870.31
2023-04-13T04:03:36.021Z,98878.66
2023-04-13T04:06:08.463Z,98877.11
2023-04-13T04:08:39.976Z,98878.83
2023-04-13T04:11:13.728Z,98879.40
2023-04-13T04:13:41.892Z,98882.19
2023-04-13T04:16:19.738Z,98881.73
2023-04-13T04:18:53.295Z,98883.96
2023-04-13T04:21:21.862Z,98884.18
2023-04-13T04:23:53.007Z,98882.95
2023-04-13T04:26:25.803Z,98887.98
2023-04-13T04:29:02.805Z,98889.00
2023-04-13T04:31:36.672Z,98888.48
2023-04-13T04:34:06.791Z,98891.44
2023-04-13T04:36:36.436Z,98893.95
2023-04-13T04:39:06.339Z,98895.45
2023-04-13T04:41:39.831Z,98900.37
2023-04-13T04:44:09.115Z,98900.48
2023-04-13T04:46:42.097Z,98897.46
2023-04-13T04:49:13.243Z,98898.88
2023-04-13T04:51:41.894Z,98893.29
2023-04-13T04:54:10.615Z,98887.77
2023-04-13T04:56:38.932Z,98884.52
2023-04-13T04:59:07.156Z,98876.81
2023-04-13T05:01:52.444Z,98871.11
2023-04-13T05:04:20.710Z,98860.96
2023-04-13T05:06:49.290Z,98862.77
2023-04-13T05:09:22.862Z,98875.33
2023-04-13T05:11:56.416Z,98888.06
2023-04-13T05:14:24.380Z,98899.86
2023-04-13T05:16:54.632Z,98893.77
2023-04-13T05:19:29.744Z,98891.09
2023-04-13T05:22:13.079Z,98896.55
2023-04-13T05:24:46.478Z,98892.21
2023-04-13T05:27:16.076Z,98894.21
2023-04-13T05:29:47.894Z,98893.83
2023-04-13T05:32:20.987Z,98891.68
2023-04-13T05:34:51.096Z,98888.73
2023-04-13T05:37:23.748Z,98890.27
2023-04-13T05:39:52.153Z,98887.47
2023-04-13T05:42:24.130Z,98895.52
2023-04-13T05:44:53.074Z,98897.70
2023-04-13T05:47:22.505Z,98902.84
2023-04-13T05:49:52.357Z,98905.48
2023-04-13T05:52:22.096Z,98903.83
2023-04-13T05:54:50.417Z,98901.14
2023-04-13T05:57:23.086Z,98901.77
2023-04-13T05:59:53.453Z,98897.10
2023-04-13T06:02:26.564Z,98901.88
2023-04-13T06:04:56.521Z,98899.96
2023-04-13T06:07:26.071Z,98897.94
2023-04-13T06:09:54.417Z,98898.77
2023-04-13T06:12:27.994Z,98895.11
2023-04-13T06:14:56.010Z,98900.86
2023-04-13T06:17:24.669Z,98901.54
2023-04-13T06:19:54.531Z,98903.87
2023-04-13T06:22:22.829Z,98903.73
2023-04-13T06:24:51.782Z,98903.59
2023-04-13T06:27:22.686Z,98906.52
2023-04-13T06:29:52.444Z,98908.98
2023-04-13T06:32:21.097Z,98913.73
2023-04-13T06:34:49.321Z,98917.10
2023-04-13T06:37:19.315Z,98918.83
2023-04-13T06:39:49.890Z,98924.75
2023-04-13T06:42:21.268Z,98930.79
2023-04-13T06:45:23.525Z,98930.63
2023-04-13T06:47:52.578Z,98933.33
2023-04-13T06:50:21.012Z,98934.18
2023-04-13T06:52:49.201Z,98931.92
2023-04-13T06:55:18.073Z,98930.02
2023-04-13T06:57:46.942Z,98923.66
2023-04-13T07:00:28.917Z,98921.90
2023-04-13T07:02:58.812Z,98923.36
2023-04-13T07:05:27.087Z,98921.17
2023-04-13T07:07:58.433Z,98919.30
2023-04-13T07:10:27.467Z,98925.66
2023-04-13T07:12:56.369Z,98926.11
2023-04-13T07:15:25.696Z,98930.80
2023-04-13T07:17:56.018Z,98937.48
2023-04-13T07:20:24.182Z,98940.09
2023-04-13T07:22:52.972Z,98940.08
2023-04-13T07:25:21.850Z,98937.83
2023-04-13T07:27:51.025Z,98940.48
2023-04-13T07:30:19.483Z,98942.34
2023-04-13T07:32:48.972Z,98945.39
2023-04-13T07:35:17.025Z,98943.54
2023-04-13T07:37:46.743Z,98941.28
2023-04-13T07:40:16.059Z,98939.88
2023-04-13T07:42:47.288Z,98938.41
2023-04-13T07:45:15.955Z,98937.77
2023-04-13T07:47:47.266Z,98934.36
2023-04-13T07:50:16.665Z,98936.98
2023-04-13T07:52:45.103Z,98939.86
2023-04-13T07:55:13.532Z,98940.38
2023-04-13T07:57:50.051Z,98949.77
2023-04-13T08:00:20.685Z,98954.38
2023-04-13T08:02:49.260Z,98957.86
2023-04-13T08:05:24.081Z,98963.73
2023-04-13T08:07:53.801Z,98962.48
2023-04-13T08:10:22.422Z,98963.73
2023-04-13T08:12:50.375Z,98961.48
2023-04-13T08:15:19.804Z,98960.41
2023-04-13T08:17:48.907Z,98963.06
2023-04-13T08:20:17.075Z,98968.88
2023-04-13T08:22:47.803Z,98970.79
2023-04-13T08:25:17.569Z,98973.78
2023-04-13T08:27:45.838Z,98972.74
2023-04-13T08:30:14.858Z,98969.75
2023-04-13T08:33:01.778Z,98970.17
2023-04-13T08:35:30.304Z,98974.18
2023-04-13T08:38:02.698Z,98976.77
2023-04-13T08:40:37.529Z,98977.33
2023-04-13T08:43:07.359Z,98981.67
2023-04-13T08:45:41.682Z,98983.95
2023-04-13T08:48:12.241Z,98981.73
2023-04-13T08:50:40.943Z,98981.75
2023-04-13T08:53:10.390Z,98979.48
2023-04-13T08:55:43.568Z,98983.30
2023-04-13T08:58:12.966Z,98981.96
2023-04-13T09:00:44.403Z,98979.73
2023-04-13T09:03:14.613Z,98981.06
2023-04-13T09:05:46.469Z,98980.27
2023-04-13T09:08:17.069Z,98982.27
2023-04-13T09:10:48.316Z,98985.59
2023-04-13T09:13:16.770Z,98987.66
2023-04-13T09:15:47.472Z,98985.97
2023-04-13T09:18:51.583Z,98986.57
2023-04-13T09:24:02.702Z,98995.88
2023-04-13T09:26:48.196Z,98989.21
2023-04-13T09:29:21.900Z,98983.10
2023-04-13T09:31:50.744Z,98981.71
2023-04-13T09:34:28.752Z,98981.26
2023-04-13T09:37:01.024Z,98989.58
2023-04-13T09:39:30.227Z,98988.84
2023-04-13T09:41:58.630Z,98986.13
2023-04-13T09:44:36.191Z,98995.05
2023-04-13T09:47:06.984Z,98994.30
2023-04-13T09:49:42.311Z,98996.05
2023-04-13T09:52:23.380Z,98996.08
2023-04-13T09:54:57.221Z,98994.92
2023-04-13T09:57:30.791Z,98996.23
2023-04-13T10:00:07.172Z,99003.44
2023-04-13T10:02:43.007Z,99003.44
2023-04-13T10:05:12.555Z,99004.40
2023-04-13T10:07:45.535Z,99009.73
2023-04-13T10:10:15.436Z,99010.85
2023-04-13T10:12:49.059Z,99012.27
2023-04-13T10:15:22.766Z,99015.59
2023-04-13T10:18:06.975Z,99021.78
2023-04-13T10:20:36.604Z,99022.03
2023-04-13T10:23:04.651Z,99022.41
2023-04-13T10:25:34.589Z,99027.21
2023-04-13T10:28:04.794Z,99022.95
2023-04-13T10:30:33.289Z,99023.38
2023-04-13T10:33:09.440Z,99024.64
2023-04-13T10:35:38.198Z,99026.48
2023-04-13T10:38:09.230Z,99031.95
2023-04-13T10:40:47.884Z,99030.19
2023-04-13T10:43:29.074Z,99030.20
2023-04-13T10:46:10.846Z,99034.86
2023-04-13T10:48:42.264Z,99030.79
2023-04-13T10:51:13.170Z,99031.70
2023-04-13T10:53:42.307Z,99034.51
2023-04-13T10:56:17.147Z,99041.59
2023-04-13T10:58:51.994Z,99047.09
2023-04-13T11:01:20.843Z,99051.61
2023-04-13T11:04:03.168Z,99054.69
2023-04-13T11:06:40.069Z,99062.15
2023-04-13T11:09:13.099Z,99056.87
2023-04-13T11:11:42.668Z,99066.17
2023-04-13T11:14:21.415Z,99066.11
2023-04-13T11:16:49.558Z,99064.92
2023-04-13T11:19:19.055Z,99068.59
2023-04-13T11:21:54.090Z,99071.01
2023-04-13T11:24:29.549Z,99068.48
2023-04-13T11:26:57.820Z,99062.91
2023-04-13T11:29:27.412Z,99065.83
2023-04-13T11:31:59.238Z,99060.92
2023-04-13T11:34:30.664Z,99061.58
2023-04-13T11:37:00.647Z,99058.22
2023-04-13T11:39:29.372Z,99064.55
2023-04-13T11:41:57.444Z,99062.12
2023-04-13T11:44:26.215Z,99056.67
2023-04-13T11:46:54.592Z,99058.65
2023-04-13T11:49:23.087Z,99055.77
2023-04-13T11:51:52.173Z,99059.67
2023-04-13T11:54:20.268Z,99060.16
2023-04-13T11:56:49.148Z,99062.34
2023-04-13T11:59:24.851Z,99060.67
2023-04-13T12:01:58.284Z,99068.01
2023-04-13T12:04:39.086Z,99067.52
2023-04-13T12:07:12.656Z,99068.33
2023-04-13T12:15:15.471Z,99070.61
2023-04-13T12:17:59.942Z,99065.39
2023-04-13T12:20:43.971Z,99070.80
2023-04-13T12:23:22.305Z,99067.72
2023-04-13T12:26:31.218Z,99067.58
2023-04-13T12:28:57.523Z,99067.32
2023-04-13T12:31:36.805Z,99070.22
2023-04-13T12:34:07.834Z,99069.42
2023-04-13T12:36:36.964Z,99067.28
2023-04-13T12:39:06.872Z,99068.83
2023-04-13T12:41:35.310Z,99072.27
2023-04-13T12:44:03.387Z,99074.48
2023-04-13T12:46:32.510Z,99069.36
2023-04-13T12:49:00.721Z,99072.58
2023-04-13T12:51:29.265Z,99077.14
2023-04-13T12:53:57.228Z,99068.50
2023-04-13T12:56:25.233Z,99071.36
2023-04-13T12:58:56.300Z,99071.92
2023-04-13T13:01:24.640Z,99073.01
2023-04-13T13:03:54.002Z,99070.24
2023-04-13T13:06:22.525Z,99071.09
2023-04-13T13:08:51.254Z,99067.73
2023-04-13T13:11:19.160Z,99068.73
2023-04-13T13:13:48.790Z,99069.39
2023-04-13T13:16:17.485Z,99070.30
2023-04-13T13:19:00.958Z,99072.91
2023-04-13T13:21:29.603Z,99078.16
2023-04-13T13:23:57.925Z,99072.90
2023-04-13T13:26:30.577Z,99077.34
2023-04-13T13:29:09.630Z,99076.44
2023-04-13T13:31:40.302Z,99075.67
2023-04-13T13:34:11.792Z,99080.68
2023-04-13T13:36:39.717Z,99082.84
2023-04-13T13:39:10.188Z,99083.67
2023-04-13T13:41:38.666Z,99084.23
2023-04-13T13:44:08.605Z,99086.15
2023-04-13T13:46:37.303Z,99083.80
2023-04-13T13:49:07.990Z,99081.20
2023-04-13T13:51:57.352Z,99083.67
2023-04-13T13:54:27.055Z,99083.04
2023-04-13T13:56:54.999Z,99081.88
2023-04-13T13:59:22.946Z,99082.11
2023-04-13T14:01:51.566Z,99081.08
2023-04-13T14:04:20.233Z,99081.77
2023-04-13T14:06:53.305Z,99085.09
2023-04-13T14:09:21.758Z,99088.62
2023-04-13T14:11:50.866Z,99090.23
2023-04-13T14:14:22.253Z,99093.89
2023-04-13T14:16:53.889Z,99091.57
2023-04-13T14:19:22.273Z,99097.00
2023-04-13T14:21:53.417Z,99101.23
2023-04-13T14:24:26.492Z,99102.05
2023-04-13T14:26:56.225Z,99101.84
2023-04-13T14:29:24.244Z,99103.35
2023-04-13T14:31:52.952Z,99105.60
2023-04-13T14:34:20.955Z,99107.39
2023-04-13T14:36:51.611Z,99108.38
2023-04-13T14:39:25.976Z,99105.30
2023-04-13T14:41:55.882Z,99110.67
2023-04-13T14:44:24.763Z,99110.73
2023-04-13T14:46:53.625Z,99113.55
2023-04-13T14:49:21.877Z,99109.59
2023-04-13T14:51:50.185Z,99116.10
2023-04-13T14:54:22.981Z,99117.48
2023-04-13T14:56:51.475Z,99121.00
2023-04-13T14:59:19.934Z,99123.73
2023-04-13T15:01:50.965Z,99123.98
2023-04-13T15:04:19.993Z,99126.41
2023-04-13T15:06:49.451Z,99125.78
2023-04-13T15:09:18.248Z,99127.16
2023-04-13T15:11:46.594Z,99129.22
2023-04-13T15:14:18.296Z,99127.52
2023-04-13T15:16:46.501Z,99128.77
2023-04-13T15:19:14.522Z,99130.38
2023-04-13T15:21:46.420Z,99127.81
2023-04-13T15:24:15.797Z,99127.01
2023-04-13T15:26:43.786Z,99123.94
2023-04-13T15:29:12.906Z,99120.73
2023-04-13T15:31:41.308Z,99122.70
2023-04-13T15:34:09.261Z,99124.67
2023-04-13T15:36:37.827Z,99122.16
2023-04-13T15:39:06.553Z,99124.06
2023-04-13T15:41:34.511Z,99131.06
2023-04-13T15:44:03.435Z,99132.77
2023-04-13T15:46:32.508Z,99131.27
2023-04-13T15:49:01.455Z,99130.21
2023-04-13T15:51:32.685Z,99133.08
2023-04-13T15:54:00.621Z,99131.90
2023-04-13T15:56:29.158Z,99138.48
2023-04-13T15:58:57.422Z,99145.19
2023-04-13T16:01:26.741Z,99142.70
2023-04-13T16:03:56.384Z,99146.87
2023-04-13T16:06:24.553Z,99142.45
2023-04-13T16:09:02.119Z,99146.02
2023-04-13T16:11:32.331Z,99145.14
2023-04-13T16:14:07.488Z,99146.98
2023-04-13T16:16:47.215Z,99149.70
2023-04-13T16:19:18.404Z,99154.30
2023-04-13T16:21:47.584Z,99154.63
2023-04-13T16:24:17.255Z,99162.26
2023-04-13T16:26:46.102Z,99160.29
2023-04-13T16:29:14.028Z,99162.17
2023-04-13T16:31:44.979Z,99167.47
2023-04-13T16:34:25.508Z,99167.37
2023-04-13T16:36:54.797Z,99170.64
2023-04-13T16:39:24.054Z,99176.27
2023-04-13T16:41:52.169Z,99179.86
2023-04-13T16:44:20.196Z,99181.30
2023-04-13T16:46:50.088Z,99180.39
2023-04-13T16:49:18.508Z,99181.73
2023-04-13T16:51:48.414Z,99187.41
2023-04-13T16:54:17.919Z,99183.33
2023-04-13T16:56:48.472Z,99183.89
2023-04-13T16:59:16.744Z,99186.69
2023-04-13T17:01:47.659Z,99195.38
2023-04-13T17:04:18.905Z,99199.98
2023-04-13T17:06:47.485Z,99200.36
2023-04-13T17:09:15.621Z,99202.40
2023-04-13T17:11:45.835Z,99203.21
2023-04-13T17:14:14.038Z,99209.75
2023-04-13T17:16:46.139Z,99214.85
2023-04-13T17:19:15.632Z,99219.20
2023-04-13T17:21:43.962Z,99222.70
2023-04-13T17:24:13.417Z,99231.02
2023-04-13T17:26:42.787Z,99233.95
2023-04-13T17:29:10.913Z,99236.05
2023-04-13T17:31:38.945Z,99232.65
2023-04-13T17:34:07.304Z,99231.64
2023-04-13T17:36:35.337Z,99232.45
2023-04-13T17:39:05.773Z,99234.39
2023-04-13T17:41:35.841Z,99238.42
2023-04-13T17:44:03.962Z,99237.05
2023-04-13T17:46:31.970Z,99244.83
2023-04-13T17:49:03.151Z,99238.80
2023-04-13T17:51:32.503Z,99239.52
2023-04-13T17:54:01.089Z,99237.23
2023-04-13T17:56:31.759Z,99239.23
2023-04-13T17:59:00.788Z,99243.41
2023-04-13T18:01:29.510Z,99246.55
2023-04-13T18:03:59.588Z,99245.20
2023-04-13T18:06:28.043Z,99246.16
2023-04-13T18:08:56.321Z,99247.37
2023-04-13T18:11:24.736Z,99250.49
2023-04-13T18:13:54.027Z,99254.27
2023-04-13T18:16:22.552Z,99258.02
2023-04-13T18:18:51.442Z,99256.79
2023-04-13T18:21:19.732Z,99254.71
2023-04-13T18:23:48.130Z,99254.53
2023-04-13T18:26:16.567Z,99256.23
2023-04-13T18:28:44.886Z,99256.45
2023-04-13T18:31:13.670Z,99260.65
2023-04-13T18:33:42.569Z,99263.98
2023-04-13T18:36:14.444Z,99263.58
2023-04-13T18:38:44.955Z,99264.11
2023-04-13T18:41:13.572Z,99263.86
2023-04-13T18:43:41.524Z,99265.91
2023-04-13T18:46:09.510Z,99265.08
2023-04-13T18:48:38.096Z,99263.73
2023-04-13T18:51:09.920Z,99261.05
2023-04-13T18:53:39.773Z,99261.77
2023-04-13T18:56:07.851Z,99260.34
2023-04-13T18:58:37.495Z,99262.73
2023-04-13T19:01:17.600Z,99266.60
2023-04-13T19:03:46.180Z,99263.79
2023-04-13T19:06:22.381Z,99261.79
2023-04-13T19:08:51.076Z,99264.44
2023-04-13T19:11:20.088Z,99263.94
2023-04-13T19:13:48.198Z,99257.55
2023-04-13T19:16:23.744Z,99263.75
2023-04-13T19:18:53.353Z,99268.55
2023-04-13T19:21:24.067Z,99265.83
2023-04-13T19:23:54.316Z,99265.33
2023-04-13T19:26:25.145Z,99267.42
2023-04-13T19:28:55.627Z,99265.36
2023-04-13T19:31:25.085Z,99263.21
2023-04-13T19:33:53.393Z,99266.59
2023-04-13T19:36:21.404Z,99265.45
2023-04-13T19:38:51.959Z,99265.68
2023-04-13T19:41:19.895Z,99266.77
2023-04-13T19:43:47.866Z,99266.20
2023-04-13T19:46:16.212Z,99273.54
2023-04-13T19:48:44.590Z,99277.73
2023-04-13T19:51:12.644Z,99274.52
2023-04-13T19:53:42.010Z,99269.90
2023-04-13T19:56:10.534Z,99272.50
2023-04-13T19:58:38.626Z,99275.34
2023-04-13T20:01:10.370Z,99271.16
2023-04-13T20:03:40.833Z,99276.01
2023-04-13T20:06:09.363Z,99280.70
2023-04-13T20:08:37.412Z,99282.80
2023-04-13T20:11:08.214Z,99281.11
2023-04-13T20:13:38.674Z,99277.99
2023-04-13T20:16:07.224Z,99279.02
2023-04-13T20:18:35.315Z,99276.94
2023-04-13T20:21:03.782Z,99280.02
2023-04-13T20:23:31.818Z,99283.21
2023-04-13T20:26:04.642Z,99283.48
2023-04-13T20:28:33.491Z,99288.45
2023-04-13T20:31:01.493Z,99288.42
2023-04-13T20:33:31.146Z,99286.44
2023-04-13T20:35:59.132Z,99289.35
2023-04-13T20:38:29.989Z,99293.07
2023-04-13T20:40:59.381Z,99286.24
2023-04-13T20:43:27.956Z,99284.01
2023-04-13T20:45:59.651Z,99283.65
2023-04-13T20:51:01.810Z,99284.88
2023-04-13T20:53:30.146Z,99287.02
2023-04-13T20:55:58.463Z,99282.23
2023-04-13T20:58:28.658Z,99285.86
2023-04-13T21:00:57.169Z,99290.20
2023-04-13T21:03:30.838Z,99289.66
2023-04-13T21:05:59.751Z,99295.98
2023-04-13T21:08:27.787Z,99295.48
2023-04-13T21:10:55.903Z,99295.52
2023-04-13T21:13:24.866Z,99292.18
2023-04-13T21:15:52.792Z,99292.51
2023-04-13T21:18:22.152Z,99290.89
2023-04-13T21:20:51.970Z,99289.93
2023-04-13T21:23:20.629Z,99288.29
2023-04-13T21:25:50.918Z,99287.27
2023-04-13T21:28:21.214Z,99287.47
2023-04-13T21:30:49.263Z,99292.69
2023-04-13T21:33:21.612Z,99292.71
2023-04-13T21:35:49.650Z,99298.84
2023-04-13T21:40:48.614Z,99311.41
2023-04-13T21:43:17.001Z,99303.28
2023-04-13T21:45:46.931Z,99306.14
2023-04-13T21:48:14.995Z,99304.89
2023-04-13T21:50:43.481Z,99297.08
2023-04-13T21:53:11.580Z,99302.45
2023-04-13T21:55:41.360Z,99299.16
2023-04-13T21:58:09.588Z,99299.07
2023-04-13T22:00:37.891Z,99297.97
2023-04-13T22:03:06.775Z,99297.31
2023-04-13T22:05:35.847Z,99296.05
2023-04-13T22:08:04.286Z,99301.30
2023-04-13T22:10:34.063Z,99299.48
2023-04-13T22:13:02.168Z,99302.05
2023-04-13T22:15:31.974Z,99302.19
2023-04-13T22:18:00.821Z,99299.96
2023-04-13T22:20:30.165Z,99297.99
2023-04-13T22:22:58.073Z,99292.23
2023-04-13T22:25:28.048Z,99291.95
2023-04-13T22:27:56.519Z,99289.14
2023-04-13T22:30:27.169Z,99287.79
2023-04-13T22:32:59.028Z,99288.69
2023-04-13T22:35:27.392Z,99288.86
2023-04-13T22:37:59.728Z,99288.59
2023-04-13T22:40:28.180Z,99291.82
2023-04-13T22:42:56.105Z,99292.12
2023-04-13T22:45:26.319Z,99294.59
2023-04-13T22:47:54.290Z,99298.06
2023-04-13T22:50:22.306Z,99296.08
2023-04-13T22:52:54.259Z,99293.97
2023-04-13T22:55:22.466Z,99296.61
2023-04-13T22:57:50.977Z,99296.45
2023-04-13T23:00:20.925Z,99288.99
2023-04-13T23:02:56.033Z,99290.36
2023-04-13T23:05:24.533Z,99291.88
2023-04-13T23:07:52.464Z,99296.16
2023-04-13T23:10:21.787Z,99298.42
2023-04-13T23:12:49.959Z,99304.55
2023-04-13T23:15:17.998Z,99304.48
2023-04-13T23:17:47.621Z,99301.83
2023-04-13T23:20:15.791Z,99301.21
2023-04-13T23:22:43.798Z,99300.27
2023-04-13T23:25:12.059Z,99302.91
2023-04-13T23:27:40.500Z,99306.02
2023-04-13T23:30:08.904Z,99312.52
2023-04-13T23:32:39.791Z,99316.26
2023-04-13T23:35:08.830Z,99319.83
2023-04-13T23:37:36.859Z,99321.19
2023-04-13T23:40:05.524Z,99320.73
2023-04-13T23:42:37.201Z,99321.30
2023-04-13T23:45:06.579Z,99319.13
2023-04-13T23:47:35.547Z,99318.99
2023-04-13T23:50:03.894Z,99318.08
2023-04-13T23:52:33.161Z,99319.80
2023-04-13T23:55:01.151Z,99320.26
2023-04-13T23:57:34.025Z,99322.96
